Time;durP1;ratioP1;P1;durP2;ratioP2;P2;SDS_P1;SDS_P2;PMS_P1;PMS_P2;Temp;Humidity;BMP_temperature;BMP_pressure;BME280_temperature;BME280_humidity;BME280_pressure;Samples;Min_cycle;Max_cycle;Signal;HPM_P1;HPM_P2
2020/12/20 00:00:29;;;;;;;10.45;7.03;;;;;;;;;;4992081;28;20066;-76
2020/12/20 00:02:56;;;;;;;9.23;6.68;;;;;;;;;;4976644;28;20061;-76
2020/12/20 00:05:22;;;;;;;9.10;6.65;;;;;;;;;;4976834;28;20042;-77
2020/12/20 00:07:49;;;;;;;9.07;6.57;;;;;;;;;;4976239;28;20085;-77
2020/12/20 00:10:16;;;;;;;10.40;7.35;;;;;;;;;;4976839;28;20038;-77
2020/12/20 00:12:42;;;;;;;9.15;6.65;;;;;;;;;;4976339;28;20035;-76
2020/12/20 00:15:07;;;;;;;11.02;8.20;;;;;;;;;;4976782;28;20049;-76
2020/12/20 00:17:33;;;;;;;12.25;8.38;;;;;;;;;;4975030;28;20051;-77
2020/12/20 00:19:58;;;;;;;12.35;7.65;;;;;;;;;;4976576;28;20046;-77
2020/12/20 00:22:24;;;;;;;9.75;6.85;;;;;;;;;;4976476;28;20463;-77
2020/12/20 00:24:49;;;;;;;12.10;7.20;;;;;;;;;;4976590;28;20035;-76
2020/12/20 00:27:15;;;;;;;11.90;8.20;;;;;;;;;;4976167;28;20039;-77
2020/12/20 00:29:41;;;;;;;13.10;7.75;;;;;;;;;;4976502;28;20050;-77
2020/12/20 00:32:09;;;;;;;11.45;8.32;;;;;;;;;;4976432;28;20081;-77
2020/12/20 00:34:35;;;;;;;19.55;8.05;;;;;;;;;;4976219;28;20039;-76
2020/12/20 00:37:01;;;;;;;13.68;7.22;;;;;;;;;;4975281;28;20085;-76
2020/12/20 00:39:27;;;;;;;11.60;8.00;;;;;;;;;;4975988;28;20069;-76
2020/12/20 00:41:57;;;;;;;14.13;7.57;;;;;;;;;;4975851;28;20038;-77
2020/12/20 00:44:24;;;;;;;10.02;7.25;;;;;;;;;;4976163;28;20489;-77
2020/12/20 00:46:50;;;;;;;10.20;7.72;;;;;;;;;;4975876;28;20096;-76
2020/12/20 00:49:15;;;;;;;11.73;8.35;;;;;;;;;;4975965;28;20039;-77
2020/12/20 00:51:41;;;;;;;11.18;7.35;;;;;;;;;;4991067;28;20455;-77
2020/12/20 00:54:06;;;;;;;10.38;7.40;;;;;;;;;;4990803;28;20042;-76
2020/12/20 00:56:32;;;;;;;9.80;7.72;;;;;;;;;;4974607;28;20084;-76
2020/12/20 00:58:58;;;;;;;13.15;8.57;;;;;;;;;;4974623;28;20035;-77
2020/12/20 01:01:24;;;;;;;12.05;8.15;;;;;;;;;;4974398;28;20027;-77
2020/12/20 01:03:49;;;;;;;10.40;7.47;;;;;;;;;;4990738;28;20018;-76
2020/12/20 01:06:19;;;;;;;11.27;7.97;;;;;;;;;;4990599;28;20045;-77
2020/12/20 01:08:50;;;;;;;10.80;7.93;;;;;;;;;;4990463;28;20042;-76
2020/12/20 01:11:16;;;;;;;15.15;8.13;;;;;;;;;;4975534;28;20376;-77
2020/12/20 01:13:42;;;;;;;10.13;8.05;;;;;;;;;;4990757;28;20031;-76
2020/12/20 01:16:23;;;;;;;14.05;7.78;;;;;;;;;;4974407;28;20054;-76
2020/12/20 01:18:49;;;;;;;11.25;7.63;;;;;;;;;;4988052;28;20074;-77
2020/12/20 01:21:15;;;;;;;10.73;7.93;;;;;;;;;;4955821;28;20073;-76
2020/12/20 01:23:43;;;;;;;11.13;7.85;;;;;;;;;;4954836;28;20554;-76
2020/12/20 01:26:09;;;;;;;13.68;8.15;;;;;;;;;;4970741;28;20038;-76
2020/12/20 01:28:35;;;;;;;12.43;8.15;;;;;;;;;;4938632;28;20031;-77
2020/12/20 01:31:03;;;;;;;11.38;8.75;;;;;;;;;;4954592;28;20044;-77
2020/12/20 01:33:43;;;;;;;11.75;7.82;;;;;;;;;;4970858;28;20098;-77
2020/12/20 01:36:13;;;;;;;11.18;8.25;;;;;;;;;;4970506;28;20389;-76
2020/12/20 01:38:41;;;;;;;17.80;9.32;;;;;;;;;;4970694;28;20027;-77
2020/12/20 01:41:08;;;;;;;15.57;8.73;;;;;;;;;;4970518;28;20038;-76
2020/12/20 01:43:45;;;;;;;14.57;8.63;;;;;;;;;;4954315;28;20062;-77
2020/12/20 01:46:12;;;;;;;11.73;8.15;;;;;;;;;;4954388;28;20387;-77
2020/12/20 01:48:38;;;;;;;10.05;8.18;;;;;;;;;;4954771;28;20031;-77
2020/12/20 01:51:05;;;;;;;12.10;7.97;;;;;;;;;;4973775;28;20084;-77
2020/12/20 01:53:30;;;;;;;12.68;7.65;;;;;;;;;;4989588;28;20031;-76
2020/12/20 01:56:02;;;;;;;9.75;7.97;;;;;;;;;;4973868;28;20377;-77
2020/12/20 01:58:36;;;;;;;11.77;8.00;;;;;;;;;;4973371;28;20030;-76
2020/12/20 02:01:08;;;;;;;10.80;7.25;;;;;;;;;;4989500;28;20031;-77
2020/12/20 02:03:45;;;;;;;10.70;7.40;;;;;;;;;;4973205;28;20448;-77
2020/12/20 02:06:19;;;;;;;10.07;7.47;;;;;;;;;;4973457;28;20031;-77
2020/12/20 02:08:53;;;;;;;8.25;6.35;;;;;;;;;;4989651;28;20069;-77
2020/12/20 02:11:18;;;;;;;8.07;6.35;;;;;;;;;;4989916;28;20062;-77
2020/12/20 02:13:50;;;;;;;7.45;5.78;;;;;;;;;;4989525;28;20564;-77
2020/12/20 02:16:19;;;;;;;8.68;5.57;;;;;;;;;;4973292;28;20084;-76
2020/12/20 02:18:45;;;;;;;9.00;6.25;;;;;;;;;;4972954;28;20385;-76
2020/12/20 02:21:15;;;;;;;9.45;6.22;;;;;;;;;;4974755;28;20507;-77
2020/12/20 02:23:47;;;;;;;9.70;6.63;;;;;;;;;;4989411;28;20504;-77
2020/12/20 02:26:21;;;;;;;10.93;8.10;;;;;;;;;;4973181;28;20042;-76
2020/12/20 02:28:57;;;;;;;15.45;8.00;;;;;;;;;;4956996;28;20027;-76
2020/12/20 02:31:25;;;;;;;11.80;8.25;;;;;;;;;;4973189;28;20035;-77
2020/12/20 02:33:52;;;;;;;17.52;8.85;;;;;;;;;;4973061;28;20038;-77
2020/12/20 02:36:18;;;;;;;13.23;8.73;;;;;;;;;;4974272;28;20027;-77
2020/12/20 02:38:45;;;;;;;12.82;8.25;;;;;;;;;;4973143;28;20403;-77
2020/12/20 02:41:17;;;;;;;8.68;7.03;;;;;;;;;;4989010;28;20031;-77
2020/12/20 02:43:46;;;;;;;10.68;7.22;;;;;;;;;;4972665;28;20104;-76
2020/12/20 02:46:18;;;;;;;9.82;6.93;;;;;;;;;;4957520;28;20034;-77
2020/12/20 02:48:49;;;;;;;9.23;6.55;;;;;;;;;;4972888;28;20052;-77
2020/12/20 02:51:15;;;;;;;8.90;6.75;;;;;;;;;;4974194;28;20121;-76
2020/12/20 02:53:41;;;;;;;9.20;6.78;;;;;;;;;;4988942;28;20022;-77
2020/12/20 02:56:09;;;;;;;9.52;6.55;;;;;;;;;;4989173;28;20031;-77
2020/12/20 02:58:35;;;;;;;9.93;7.03;;;;;;;;;;4972569;28;20030;-77
2020/12/20 03:01:10;;;;;;;11.63;7.65;;;;;;;;;;4991877;28;20100;-76
2020/12/20 03:03:35;;;;;;;13.90;8.02;;;;;;;;;;4977840;28;20027;-77
2020/12/20 03:06:01;;;;;;;11.00;7.78;;;;;;;;;;4976509;28;20053;-77
2020/12/20 03:08:27;;;;;;;11.88;7.47;;;;;;;;;;4992679;28;20070;-76
2020/12/20 03:10:53;;;;;;;10.70;7.55;;;;;;;;;;4993208;28;20066;-76
2020/12/20 03:13:19;;;;;;;12.65;6.97;;;;;;;;;;4977712;28;20031;-76
2020/12/20 03:15:52;;;;;;;10.55;8.07;;;;;;;;;;4992825;28;20484;-77
2020/12/20 03:18:21;;;;;;;9.88;6.97;;;;;;;;;;4976121;28;20054;-76
2020/12/20 03:20:47;;;;;;;10.38;7.03;;;;;;;;;;4992578;28;20042;-77
2020/12/20 03:23:12;;;;;;;10.73;7.68;;;;;;;;;;4991865;28;20035;-77
2020/12/20 03:25:53;;;;;;;8.50;6.32;;;;;;;;;;4976146;28;20042;-76
2020/12/20 03:28:41;;;;;;;11.68;7.95;;;;;;;;;;4977070;28;20396;-77
2020/12/20 03:31:39;;;;;;;11.57;7.80;;;;;;;;;;4976248;28;20038;-77
2020/12/20 03:34:21;;;;;;;10.05;7.07;;;;;;;;;;4992477;28;20544;-77
2020/12/20 03:36:56;;;;;;;10.35;7.13;;;;;;;;;;4975810;28;20030;-76
2020/12/20 03:39:24;;;;;;;9.35;7.70;;;;;;;;;;4992430;28;20035;-76
2020/12/20 03:41:50;;;;;;;9.38;7.18;;;;;;;;;;4991787;28;20112;-76
2020/12/20 03:44:21;;;;;;;10.80;6.90;;;;;;;;;;4992111;28;20381;-76
2020/12/20 03:46:47;;;;;;;8.80;7.18;;;;;;;;;;4976048;28;20440;-77
2020/12/20 03:49:13;;;;;;;10.48;7.78;;;;;;;;;;4992117;28;20033;-77
2020/12/20 03:51:40;;;;;;;10.05;7.25;;;;;;;;;;4975977;28;20039;-77
2020/12/20 03:54:07;;;;;;;11.05;7.90;;;;;;;;;;4976781;28;20082;-77
2020/12/20 03:56:33;;;;;;;10.50;7.03;;;;;;;;;;4991951;28;20126;-77
2020/12/20 03:59:14;;;;;;;8.20;6.30;;;;;;;;;;4975559;28;20511;-76
2020/12/20 04:01:40;;;;;;;8.60;6.78;;;;;;;;;;4991863;28;20035;-76
2020/12/20 04:04:06;;;;;;;9.80;6.85;;;;;;;;;;4976755;28;20740;-76
2020/12/20 04:06:32;;;;;;;10.15;7.57;;;;;;;;;;4991858;28;20039;-77
2020/12/20 04:08:57;;;;;;;13.55;7.15;;;;;;;;;;4976709;28;20026;-77
2020/12/20 04:11:41;;;;;;;8.55;6.38;;;;;;;;;;4976810;28;20411;-76
2020/12/20 04:14:08;;;;;;;9.07;6.70;;;;;;;;;;4991533;28;20034;-77
2020/12/20 04:16:36;;;;;;;8.18;6.38;;;;;;;;;;4975377;28;20400;-77
2020/12/20 04:19:02;;;;;;;9.85;7.00;;;;;;;;;;4975361;28;20051;-77
2020/12/20 04:21:29;;;;;;;13.57;7.78;;;;;;;;;;4975178;28;20042;-76
2020/12/20 04:23:54;;;;;;;12.88;7.75;;;;;;;;;;4975410;28;20027;-77
2020/12/20 04:26:25;;;;;;;11.82;7.50;;;;;;;;;;4976401;28;20035;-77
2020/12/20 04:29:16;;;;;;;9.23;7.03;;;;;;;;;;4976089;28;20066;-76
2020/12/20 04:31:47;;;;;;;8.20;6.80;;;;;;;;;;4991192;28;20085;-77
2020/12/20 04:34:17;;;;;;;9.65;6.80;;;;;;;;;;4959353;28;20530;-77
2020/12/20 04:36:43;;;;;;;8.90;6.95;;;;;;;;;;4975145;28;20132;-77
2020/12/20 04:39:29;;;;;;;12.45;7.43;;;;;;;;;;4991186;28;20039;-77
2020/12/20 04:41:54;;;;;;;8.40;6.53;;;;;;;;;;4975136;28;20081;-77
2020/12/20 04:44:20;;;;;;;7.88;6.65;;;;;;;;;;4990970;28;20042;-77
2020/12/20 04:46:55;;;;;;;9.65;6.97;;;;;;;;;;4990886;28;20089;-77
2020/12/20 04:49:32;;;;;;;8.30;6.15;;;;;;;;;;4990936;28;20030;-77
2020/12/20 04:52:03;;;;;;;9.95;7.65;;;;;;;;;;4990934;28;20038;-77
2020/12/20 04:54:34;;;;;;;9.68;7.68;;;;;;;;;;4990789;28;20031;-77
2020/12/20 04:57:03;;;;;;;15.25;7.35;;;;;;;;;;4974631;28;20027;-77
2020/12/20 04:59:35;;;;;;;11.32;8.27;;;;;;;;;;4974375;28;20559;-77
2020/12/20 05:02:04;;;;;;;12.05;7.18;;;;;;;;;;4974454;28;20388;-77
2020/12/20 05:04:29;;;;;;;10.25;7.18;;;;;;;;;;4990617;28;20050;-77
2020/12/20 05:06:56;;;;;;;9.07;6.80;;;;;;;;;;4990481;28;20034;-77
2020/12/20 05:09:46;;;;;;;10.35;7.68;;;;;;;;;;4975406;28;20392;-77
2020/12/20 05:12:29;;;;;;;15.73;9.23;;;;;;;;;;4958297;28;20035;-77
2020/12/20 05:14:59;;;;;;;;;;;;;;;;;;4990907;28;20031;-77
2020/12/20 05:17:28;;;;;;;9.02;7.53;;;;;;;;;;4989268;28;19918;-77
2020/12/20 05:20:07;;;;;;;9.43;7.00;;;;;;;;;;4990134;28;20042;-77
2020/12/20 05:22:35;;;;;;;8.45;6.97;;;;;;;;;;4974859;28;20058;-77
2020/12/20 05:25:16;;;;;;;11.18;6.88;;;;;;;;;;4974162;28;20096;-77
2020/12/20 05:27:46;;;;;;;9.57;6.60;;;;;;;;;;4989441;28;20058;-77
2020/12/20 05:30:21;;;;;;;7.75;6.25;;;;;;;;;;4990188;28;20045;-77
2020/12/20 05:33:07;;;;;;;7.78;6.70;;;;;;;;;;4974987;28;20048;-77
2020/12/20 05:35:36;;;;;;;9.68;6.43;;;;;;;;;;4973938;28;20507;-77
2020/12/20 05:38:04;;;;;;;9.13;7.25;;;;;;;;;;4973850;28;20030;-77
2020/12/20 05:40:34;;;;;;;11.32;8.57;;;;;;;;;;4989913;28;20034;-77
2020/12/20 05:43:03;;;;;;;11.13;7.82;;;;;;;;;;4973915;28;20038;-77
2020/12/20 05:45:35;;;;;;;9.55;7.05;;;;;;;;;;4973926;28;20432;-77
2020/12/20 05:48:31;;;;;;;9.68;7.20;;;;;;;;;;4973557;28;20034;-77
2020/12/20 05:51:06;;;;;;;11.77;8.05;;;;;;;;;;4989921;28;20693;-77
2020/12/20 05:53:33;;;;;;;9.43;6.50;;;;;;;;;;4974520;28;20062;-77
2020/12/20 05:56:00;;;;;;;11.55;8.20;;;;;;;;;;4974742;28;20035;-77
2020/12/20 05:58:31;;;;;;;11.02;8.57;;;;;;;;;;4974631;28;20047;-77
2020/12/20 06:00:58;;;;;;;11.80;8.35;;;;;;;;;;4974079;28;20039;-77
2020/12/20 06:03:24;;;;;;;9.77;7.00;;;;;;;;;;4973624;28;20046;-77
2020/12/20 06:05:50;;;;;;;12.90;7.35;;;;;;;;;;4973206;28;20047;-76
2020/12/20 06:08:18;;;;;;;11.27;8.00;;;;;;;;;;4974338;28;20203;-77
2020/12/20 06:10:48;;;;;;;17.00;8.50;;;;;;;;;;4974537;28;20034;-76
2020/12/20 06:13:17;;;;;;;8.75;6.93;;;;;;;;;;4973443;28;20081;-77
2020/12/20 06:15:43;;;;;;;8.57;6.68;;;;;;;;;;4973398;28;20042;-76
2020/12/20 06:18:14;;;;;;;7.90;5.93;;;;;;;;;;4974098;28;20445;-77
2020/12/20 06:20:48;;;;;;;9.75;7.00;;;;;;;;;;4989508;28;20066;-77
2020/12/20 06:23:17;;;;;;;9.93;6.70;;;;;;;;;;4973902;28;20202;-76
2020/12/20 06:25:45;;;;;;;11.50;8.05;;;;;;;;;;4973967;28;20181;-77
2020/12/20 06:28:19;;;;;;;11.93;8.02;;;;;;;;;;4973172;28;20064;-77
2020/12/20 06:30:45;;;;;;;11.27;8.05;;;;;;;;;;4974336;28;20132;-77
2020/12/20 06:33:17;;;;;;;12.68;7.72;;;;;;;;;;4974312;28;20404;-77
2020/12/20 06:35:49;;;;;;;11.00;7.38;;;;;;;;;;4973454;28;20045;-77
2020/12/20 06:38:18;;;;;;;9.95;7.07;;;;;;;;;;4973749;28;20027;-77
2020/12/20 06:40:44;;;;;;;10.50;7.70;;;;;;;;;;4974116;28;20387;-77
2020/12/20 06:43:10;;;;;;;11.68;7.60;;;;;;;;;;4974196;28;20041;-77
2020/12/20 06:45:44;;;;;;;11.40;7.80;;;;;;;;;;4974490;28;20121;-79
2020/12/20 06:48:10;;;;;;;19.10;9.77;;;;;;;;;;4974235;28;20035;-77
2020/12/20 06:50:38;;;;;;;17.55;9.85;;;;;;;;;;4974085;28;20057;-77
2020/12/20 06:53:04;;;;;;;16.10;9.88;;;;;;;;;;4959684;28;20058;-77
2020/12/20 06:55:30;;;;;;;16.30;9.98;;;;;;;;;;4954996;28;20035;-78
2020/12/20 06:58:01;;;;;;;13.57;9.75;;;;;;;;;;4954818;28;20540;-76
2020/12/20 07:00:45;;;;;;;17.50;10.15;;;;;;;;;;4954996;28;20034;-76
2020/12/20 07:03:31;;;;;;;13.48;9.63;;;;;;;;;;4969845;28;20090;-76
2020/12/20 07:06:11;;;;;;;11.65;8.02;;;;;;;;;;4965901;28;20055;-76
2020/12/20 07:08:37;;;;;;;9.63;6.95;;;;;;;;;;4988912;28;20042;-77
2020/12/20 07:11:11;;;;;;;10.20;7.80;;;;;;;;;;4974068;28;20495;-77
2020/12/20 07:13:38;;;;;;;10.48;7.88;;;;;;;;;;4972640;28;20035;-77
2020/12/20 07:16:12;;;;;;;8.82;6.90;;;;;;;;;;4973835;28;20070;-77
2020/12/20 07:18:50;;;;;;;11.70;7.22;;;;;;;;;;4973563;28;20051;-76
2020/12/20 07:21:19;;;;;;;17.73;8.82;;;;;;;;;;4973733;28;20050;-77
2020/12/20 07:24:04;;;;;;;11.82;9.02;;;;;;;;;;4973933;28;20039;-76
2020/12/20 07:26:33;;;;;;;12.45;8.20;;;;;;;;;;4968737;28;20369;-76
2020/12/20 07:29:00;;;;;;;10.25;7.80;;;;;;;;;;4961314;28;20039;-77
2020/12/20 07:31:25;;;;;;;11.68;8.63;;;;;;;;;;4964075;28;20031;-77
2020/12/20 07:33:51;;;;;;;10.50;7.68;;;;;;;;;;4962041;28;20050;-77
2020/12/20 07:36:19;;;;;;;12.10;7.95;;;;;;;;;;4986779;28;20035;-77
2020/12/20 07:38:44;;;;;;;10.70;7.72;;;;;;;;;;4974152;28;20070;-78
2020/12/20 07:41:10;;;;;;;12.13;8.45;;;;;;;;;;4973894;28;20074;-76
2020/12/20 07:43:36;;;;;;;12.27;9.02;;;;;;;;;;4973402;28;20031;-77
2020/12/20 07:46:05;;;;;;;10.65;8.38;;;;;;;;;;4972772;28;20050;-76
2020/12/20 07:48:31;;;;;;;10.18;7.95;;;;;;;;;;4976333;28;20407;-77
2020/12/20 07:51:26;;;;;;;9.95;7.95;;;;;;;;;;4991597;28;20031;-76
2020/12/20 07:53:53;;;;;;;12.15;9.45;;;;;;;;;;4943861;29;20058;-76
2020/12/20 07:56:26;;;;;;;12.05;9.27;;;;;;;;;;4956842;28;20039;-76
2020/12/20 07:58:53;;;;;;;11.48;8.75;;;;;;;;;;4956515;28;20043;-76
2020/12/20 08:01:19;;;;;;;11.40;9.13;;;;;;;;;;4967391;28;20034;-76
2020/12/20 08:03:45;;;;;;;13.60;9.60;;;;;;;;;;4976510;28;20034;-76
2020/12/20 08:06:13;;;;;;;18.02;11.15;;;;;;;;;;4976468;28;20074;-76
2020/12/20 08:08:42;;;;;;;17.23;10.85;;;;;;;;;;4976379;28;20046;-76
2020/12/20 08:11:19;;;;;;;13.20;9.57;;;;;;;;;;4976477;28;20039;-76
2020/12/20 08:13:50;;;;;;;;;;;;;;;;;;4976692;28;20081;-76
2020/12/20 08:16:26;;;;;;;13.77;8.88;;;;;;;;;;4976215;28;19923;-76
2020/12/20 08:19:04;;;;;;;12.55;8.32;;;;;;;;;;4976181;28;20063;-76
2020/12/20 08:21:46;;;;;;;12.85;9.73;;;;;;;;;;4976291;28;20165;-76
2020/12/20 08:24:12;;;;;;;16.67;12.43;;;;;;;;;;4977243;28;20038;-77
2020/12/20 08:26:38;;;;;;;14.05;11.20;;;;;;;;;;4975453;28;20034;-76
2020/12/20 08:29:04;;;;;;;17.95;12.18;;;;;;;;;;4976047;28;20035;-75
2020/12/20 08:31:30;;;;;;;14.10;10.63;;;;;;;;;;4976092;28;20488;-75
2020/12/20 08:33:57;;;;;;;12.65;9.75;;;;;;;;;;4975704;28;20075;-74
2020/12/20 08:36:26;;;;;;;12.60;10.10;;;;;;;;;;4976056;28;20042;-74
2020/12/20 08:38:52;;;;;;;11.32;8.85;;;;;;;;;;4975914;28;20477;-74
2020/12/20 08:41:24;;;;;;;10.52;8.00;;;;;;;;;;4976113;28;20037;-74
2020/12/20 08:44:03;;;;;;;11.63;8.40;;;;;;;;;;4976202;28;20129;-74
2020/12/20 08:46:34;;;;;;;10.93;8.40;;;;;;;;;;4975961;28;20046;-75
2020/12/20 08:49:19;;;;;;;11.20;8.05;;;;;;;;;;4975914;28;20042;-75
2020/12/20 08:51:49;;;;;;;10.65;8.07;;;;;;;;;;4975952;28;20045;-74
2020/12/20 08:54:28;;;;;;;9.73;7.88;;;;;;;;;;4974787;28;20121;-74
2020/12/20 08:56:53;;;;;;;9.38;7.80;;;;;;;;;;4974862;28;20046;-74
2020/12/20 08:59:31;;;;;;;10.88;8.50;;;;;;;;;;4958085;28;20046;-74
2020/12/20 09:01:58;;;;;;;14.38;10.43;;;;;;;;;;4975544;28;20058;-75
2020/12/20 09:04:24;;;;;;;12.90;9.75;;;;;;;;;;4990712;28;20035;-76
2020/12/20 09:07:15;;;;;;;12.00;9.65;;;;;;;;;;4975505;28;20085;-74
2020/12/20 09:09:40;;;;;;;12.95;9.45;;;;;;;;;;4975520;28;20161;-79
2020/12/20 09:12:10;;;;;;;14.23;10.48;;;;;;;;;;4975567;28;20117;-75
2020/12/20 09:14:36;;;;;;;16.75;11.70;;;;;;;;;;4975292;28;20102;-74
2020/12/20 09:17:02;;;;;;;18.38;12.75;;;;;;;;;;4975553;28;20485;-74
2020/12/20 09:19:27;;;;;;;17.85;12.73;;;;;;;;;;4975727;28;20054;-77
2020/12/20 09:21:53;;;;;;;18.23;12.70;;;;;;;;;;4974989;28;20420;-76
2020/12/20 09:24:18;;;;;;;18.50;12.52;;;;;;;;;;4975520;28;20061;-75
2020/12/20 09:26:59;;;;;;;31.25;18.77;;;;;;;;;;4975098;28;20114;-75
2020/12/20 09:29:25;;;;;;;25.48;15.82;;;;;;;;;;4975402;28;20038;-75
2020/12/20 09:31:53;;;;;;;22.27;14.88;;;;;;;;;;4975291;28;20380;-76
2020/12/20 09:34:30;;;;;;;22.20;13.90;;;;;;;;;;4990394;28;20088;-76
2020/12/20 09:37:05;;;;;;;20.85;13.43;;;;;;;;;;4975021;28;20038;-75
2020/12/20 09:39:30;;;;;;;16.17;11.07;;;;;;;;;;4974966;28;20042;-76
2020/12/20 09:41:56;;;;;;;14.77;11.40;;;;;;;;;;4975055;28;20030;-75
2020/12/20 09:44:21;;;;;;;16.52;11.27;;;;;;;;;;4973949;28;20206;-76
2020/12/20 09:46:48;;;;;;;18.20;12.68;;;;;;;;;;4975082;28;20038;-75
2020/12/20 09:49:14;;;;;;;16.17;12.48;;;;;;;;;;4990070;28;20026;-75
2020/12/20 09:51:40;;;;;;;15.60;11.73;;;;;;;;;;4974220;28;20065;-75
2020/12/20 09:54:05;;;;;;;15.82;11.88;;;;;;;;;;4974633;28;20046;-75
2020/12/20 09:56:31;;;;;;;11.95;10.40;;;;;;;;;;4974769;28;20125;-75
2020/12/20 09:58:56;;;;;;;15.60;11.43;;;;;;;;;;4986057;28;20035;-75
2020/12/20 10:01:25;;;;;;;12.23;9.85;;;;;;;;;;5009225;28;20057;-75
2020/12/20 10:03:51;;;;;;;13.98;9.20;;;;;;;;;;4973891;28;20053;-75
2020/12/20 10:06:18;;;;;;;21.17;14.98;;;;;;;;;;4989514;28;20039;-75
2020/12/20 10:08:44;;;;;;;24.73;15.13;;;;;;;;;;4973510;28;20046;-75
2020/12/20 10:11:10;;;;;;;19.70;14.00;;;;;;;;;;4974610;28;20117;-75
2020/12/20 10:13:35;;;;;;;20.25;14.60;;;;;;;;;;4989794;28;20133;-74
2020/12/20 10:16:00;;;;;;;16.80;11.23;;;;;;;;;;4974534;28;20046;-75
2020/12/20 10:18:26;;;;;;;18.20;11.52;;;;;;;;;;4988405;28;20047;-75
2020/12/20 10:20:51;;;;;;;14.50;10.82;;;;;;;;;;4973691;28;20034;-75
2020/12/20 10:23:17;;;;;;;14.30;10.32;;;;;;;;;;4974001;28;20066;-75
2020/12/20 10:25:42;;;;;;;15.15;11.45;;;;;;;;;;4974047;28;20039;-74
2020/12/20 10:28:08;;;;;;;21.15;14.20;;;;;;;;;;4989394;28;20058;-74
2020/12/20 10:30:33;;;;;;;18.90;13.43;;;;;;;;;;4974288;28;20046;-75
2020/12/20 10:32:59;;;;;;;18.67;12.95;;;;;;;;;;4973856;28;20029;-74
2020/12/20 10:35:26;;;;;;;18.25;12.68;;;;;;;;;;4988985;28;20042;-75
2020/12/20 10:37:52;;;;;;;19.65;12.25;;;;;;;;;;4974151;28;20086;-75
2020/12/20 10:40:17;;;;;;;16.67;11.52;;;;;;;;;;4989086;28;20038;-75
2020/12/20 10:42:46;;;;;;;18.23;11.85;;;;;;;;;;4973634;28;20043;-74
2020/12/20 10:45:11;;;;;;;38.88;20.10;;;;;;;;;;4975239;28;20093;-79
2020/12/20 10:47:36;;;;;;;78.18;34.88;;;;;;;;;;4989209;28;20046;-76
2020/12/20 10:50:03;;;;;;;148.27;67.40;;;;;;;;;;4980920;28;20054;-77
2020/12/20 10:52:28;;;;;;;142.05;63.75;;;;;;;;;;4969535;28;20042;-76
2020/12/20 10:54:53;;;;;;;118.57;56.80;;;;;;;;;;4955140;29;20477;-77
2020/12/20 10:57:19;;;;;;;75.28;38.05;;;;;;;;;;4954810;28;20039;-77
2020/12/20 10:59:47;;;;;;;48.47;27.55;;;;;;;;;;4957583;29;20045;-80
2020/12/20 11:02:13;;;;;;;39.30;23.23;;;;;;;;;;4975236;28;20043;-78
2020/12/20 11:04:38;;;;;;;32.20;21.40;;;;;;;;;;4957752;28;20035;-76
2020/12/20 11:07:04;;;;;;;40.60;25.27;;;;;;;;;;4954441;28;20090;-76
2020/12/20 11:09:29;;;;;;;32.45;20.88;;;;;;;;;;4954611;28;20059;-74
2020/12/20 11:11:56;;;;;;;24.90;17.73;;;;;;;;;;4953512;28;20393;-74
2020/12/20 11:14:22;;;;;;;22.63;14.93;;;;;;;;;;4954806;28;20602;-74
2020/12/20 11:16:56;;;;;;;24.08;16.02;;;;;;;;;;4954474;28;20031;-75
2020/12/20 11:19:21;;;;;;;28.83;17.50;;;;;;;;;;4954265;28;20087;-76
2020/12/20 11:21:49;;;;;;;25.55;16.98;;;;;;;;;;4968562;28;20042;-76
2020/12/20 11:24:16;;;;;;;23.05;16.58;;;;;;;;;;4977675;28;20039;-75
2020/12/20 11:26:45;;;;;;;24.83;16.77;;;;;;;;;;4976302;28;20034;-75
2020/12/20 11:29:11;;;;;;;23.65;16.23;;;;;;;;;;4976910;28;20499;-75
2020/12/20 11:31:37;;;;;;;27.38;18.88;;;;;;;;;;4977391;28;20500;-75
2020/12/20 11:34:02;;;;;;;21.55;15.18;;;;;;;;;;4977072;28;20117;-75
2020/12/20 11:36:28;;;;;;;18.98;13.95;;;;;;;;;;4977290;28;20031;-76
2020/12/20 11:38:53;;;;;;;16.98;12.48;;;;;;;;;;4992382;28;20476;-75
2020/12/20 11:41:23;;;;;;;17.95;12.98;;;;;;;;;;4977323;28;20472;-75
2020/12/20 11:43:49;;;;;;;17.70;12.20;;;;;;;;;;4977204;28;20480;-75
2020/12/20 11:46:15;;;;;;;17.52;12.68;;;;;;;;;;4977062;28;20042;-75
2020/12/20 11:48:40;;;;;;;16.17;11.57;;;;;;;;;;4976272;28;20043;-75
2020/12/20 11:51:09;;;;;;;18.27;11.48;;;;;;;;;;4977122;28;20122;-74
2020/12/20 11:53:35;;;;;;;18.77;13.55;;;;;;;;;;4977088;28;20085;-75
2020/12/20 11:56:04;;;;;;;19.85;13.40;;;;;;;;;;4976869;28;20070;-74
2020/12/20 11:58:29;;;;;;;18.15;13.90;;;;;;;;;;4976625;28;20030;-74
2020/12/20 12:00:55;;;;;;;24.25;15.00;;;;;;;;;;4976543;28;20097;-74
2020/12/20 12:03:20;;;;;;;17.13;13.45;;;;;;;;;;4991923;28;20125;-74
2020/12/20 12:05:46;;;;;;;18.83;12.63;;;;;;;;;;4976979;28;20397;-75
2020/12/20 12:08:11;;;;;;;15.65;12.63;;;;;;;;;;4991563;28;20089;-74
2020/12/20 12:10:42;;;;;;;17.77;13.15;;;;;;;;;;4975532;28;20046;-75
2020/12/20 12:13:08;;;;;;;15.73;12.45;;;;;;;;;;4976650;28;20039;-76
2020/12/20 12:15:35;;;;;;;18.95;14.13;;;;;;;;;;4976556;28;20034;-75
2020/12/20 12:18:01;;;;;;;18.45;12.77;;;;;;;;;;4976287;28;20062;-76
2020/12/20 12:20:27;;;;;;;16.45;11.55;;;;;;;;;;4976655;28;20069;-75
2020/12/20 12:22:52;;;;;;;17.15;12.18;;;;;;;;;;4976532;28;20045;-75
2020/12/20 12:25:18;;;;;;;17.98;12.32;;;;;;;;;;4976014;28;20038;-76
2020/12/20 12:27:43;;;;;;;35.45;20.48;;;;;;;;;;4975870;28;20070;-76
2020/12/20 12:30:10;;;;;;;73.20;35.53;;;;;;;;;;4991167;28;20046;-75
2020/12/20 12:32:36;;;;;;;33.45;18.48;;;;;;;;;;4975076;28;20469;-76
2020/12/20 12:35:03;;;;;;;32.42;16.60;;;;;;;;;;4976548;28;20449;-77
2020/12/20 12:37:28;;;;;;;29.45;17.13;;;;;;;;;;4976320;28;20388;-77
2020/12/20 12:39:54;;;;;;;31.15;18.38;;;;;;;;;;4976257;28;20039;-77
2020/12/20 12:42:19;;;;;;;19.67;13.13;;;;;;;;;;4976101;28;20035;-77
2020/12/20 12:44:45;;;;;;;20.27;12.60;;;;;;;;;;4975480;28;20042;-77
2020/12/20 12:47:11;;;;;;;25.38;15.98;;;;;;;;;;4976697;28;20557;-77
2020/12/20 12:49:37;;;;;;;24.45;15.18;;;;;;;;;;4977240;28;20093;-78
2020/12/20 12:52:03;;;;;;;17.90;12.75;;;;;;;;;;4976574;28;20043;-78
2020/12/20 12:54:28;;;;;;;22.20;15.82;;;;;;;;;;4978284;28;20039;-79
2020/12/20 12:56:57;;;;;;;19.80;13.80;;;;;;;;;;4978878;28;20401;-78
2020/12/20 12:59:23;;;;;;;23.10;13.73;;;;;;;;;;4975914;28;20576;-77
2020/12/20 13:01:48;;;;;;;17.75;12.55;;;;;;;;;;4977581;28;20077;-79
2020/12/20 13:04:13;;;;;;;18.48;12.88;;;;;;;;;;4993407;28;20049;-78
2020/12/20 13:06:39;;;;;;;16.92;12.18;;;;;;;;;;4993132;28;20089;-77
2020/12/20 13:09:05;;;;;;;17.83;13.90;;;;;;;;;;4976896;28;20468;-78
2020/12/20 13:11:31;;;;;;;16.45;12.57;;;;;;;;;;4978759;28;20118;-77
2020/12/20 13:13:56;;;;;;;17.58;12.80;;;;;;;;;;4976225;28;20055;-78
2020/12/20 13:16:23;;;;;;;20.58;13.48;;;;;;;;;;4976173;28;20439;-77
2020/12/20 13:18:48;;;;;;;18.00;12.45;;;;;;;;;;4972738;28;20109;-78
2020/12/20 13:21:18;;;;;;;21.90;14.07;;;;;;;;;;4958146;28;20039;-79
2020/12/20 13:23:44;;;;;;;27.58;18.40;;;;;;;;;;4976023;28;20033;-76
2020/12/20 13:26:10;;;;;;;22.90;17.08;;;;;;;;;;4976296;28;20035;-77
2020/12/20 13:28:35;;;;;;;19.88;14.38;;;;;;;;;;4975107;28;20492;-77
2020/12/20 13:31:00;;;;;;;17.05;13.07;;;;;;;;;;4975793;28;20040;-78
2020/12/20 13:33:27;;;;;;;16.60;12.43;;;;;;;;;;4970805;28;20053;-78
2020/12/20 13:35:53;;;;;;;17.88;13.52;;;;;;;;;;4971116;28;20193;-77
2020/12/20 13:38:20;;;;;;;18.52;13.02;;;;;;;;;;4955728;29;20073;-77
2020/12/20 13:40:46;;;;;;;17.50;11.88;;;;;;;;;;4955606;29;20057;-78
2020/12/20 13:43:12;;;;;;;18.27;13.80;;;;;;;;;;4954940;28;20039;-77
2020/12/20 13:45:38;;;;;;;23.15;16.05;;;;;;;;;;4952499;29;20046;-78
2020/12/20 13:48:04;;;;;;;29.23;17.48;;;;;;;;;;4953570;29;20130;-77
2020/12/20 13:50:29;;;;;;;26.50;17.35;;;;;;;;;;4969158;28;20118;-78
2020/12/20 13:52:55;;;;;;;23.67;15.80;;;;;;;;;;4954363;29;20039;-78
2020/12/20 13:55:20;;;;;;;21.33;15.35;;;;;;;;;;4954134;28;20069;-77
2020/12/20 13:57:45;;;;;;;18.02;13.23;;;;;;;;;;4953528;29;20386;-77
2020/12/20 14:00:11;;;;;;;17.55;12.68;;;;;;;;;;4953924;28;20098;-77
2020/12/20 14:02:40;;;;;;;16.10;13.00;;;;;;;;;;4954151;28;20040;-77
2020/12/20 14:05:06;;;;;;;18.50;13.00;;;;;;;;;;4969956;28;20038;-77
2020/12/20 14:07:31;;;;;;;17.55;13.10;;;;;;;;;;4955115;28;20101;-77
2020/12/20 14:09:57;;;;;;;26.70;16.33;;;;;;;;;;4969816;28;20039;-77
2020/12/20 14:12:22;;;;;;;29.40;19.40;;;;;;;;;;4969764;28;20093;-77
2020/12/20 14:14:47;;;;;;;32.08;19.63;;;;;;;;;;4954876;28;20039;-78
2020/12/20 14:17:13;;;;;;;26.85;17.58;;;;;;;;;;4954887;28;20038;-78
2020/12/20 14:19:38;;;;;;;23.33;16.27;;;;;;;;;;4955303;28;20043;-77
2020/12/20 14:22:04;;;;;;;20.38;15.60;;;;;;;;;;4955420;28;20057;-77
2020/12/20 14:24:29;;;;;;;18.10;13.73;;;;;;;;;;4955076;29;20152;-78
2020/12/20 14:26:54;;;;;;;18.23;12.73;;;;;;;;;;4954935;28;20039;-77
2020/12/20 14:29:20;;;;;;;22.55;12.95;;;;;;;;;;4955352;28;20465;-77
2020/12/20 14:31:45;;;;;;;18.92;13.88;;;;;;;;;;4984721;28;20042;-77
2020/12/20 14:34:11;;;;;;;20.05;14.32;;;;;;;;;;4974480;28;20053;-77
2020/12/20 14:36:36;;;;;;;19.88;14.23;;;;;;;;;;4974141;28;20628;-77